Time;durP1;ratioP1;P1;durP2;ratioP2;P2;SDS_P1;SDS_P2;PMS_P1;PMS_P2;Temp;Humidity;BMP_temperature;BMP_pressure;BME280_temperature;BME280_humidity;BME280_pressure;Samples;Min_cycle;Max_cycle;Signal;HPM_P1;HPM_P2
2024/03/29 00:00:14;;;;;;;;;;;20.30;47.70;;;;;;1585006;73;763;-71
2024/03/29 00:02:16;;;;;;;;;;;20.20;47.60;;;;;;1579955;73;1913;-69
2024/03/29 00:04:18;;;;;;;;;;;20.30;47.70;;;;;;1581139;73;724;-70
2024/03/29 00:06:20;;;;;;;;;;;20.30;47.70;;;;;;1568669;74;1169;-68
2024/03/29 00:08:22;;;;;;;;;;;20.30;47.80;;;;;;1575914;74;807;-69
2024/03/29 00:10:24;;;;;;;;;;;20.20;47.60;;;;;;1584614;73;819;-68
2024/03/29 00:12:26;;;;;;;;;;;20.30;47.80;;;;;;1574540;73;781;-70
2024/03/29 00:14:28;;;;;;;;;;;20.30;47.70;;;;;;1577322;74;600;-69
2024/03/29 00:16:30;;;;;;;;;;;20.30;47.80;;;;;;1576989;74;1174;-69
2024/03/29 00:18:31;;;;;;;;;;;20.20;47.60;;;;;;1558716;73;714;-70
2024/03/29 00:20:33;;;;;;;;;;;20.30;47.80;;;;;;1569447;73;731;-71
2024/03/29 00:22:35;;;;;;;;;;;20.30;47.70;;;;;;1580819;74;1938;-72
2024/03/29 00:24:37;;;;;;;;;;;20.30;47.70;;;;;;1567390;74;705;-69
2024/03/29 00:26:39;;;;;;;;;;;20.20;47.60;;;;;;1576536;74;1158;-72
2024/03/29 00:28:41;;;;;;;;;;;20.70;48.00;;;;;;1573928;74;832;-70
2024/03/29 00:30:43;;;;;;;;;;;20.30;47.80;;;;;;1575105;74;808;-70
2024/03/29 00:32:45;;;;;;;;;;;20.20;47.60;;;;;;1569036;73;855;-68
2024/03/29 00:34:47;;;;;;;;;;;20.20;47.70;;;;;;1582431;73;781;-69
2024/03/29 00:36:49;;;;;;;;;;;20.20;47.70;;;;;;1586781;74;1133;-69
2024/03/29 00:38:51;;;;;;;;;;;20.30;47.80;;;;;;1578277;73;613;-71
2024/03/29 00:40:53;;;;;;;;;;;20.30;47.80;;;;;;1587097;73;787;-70
2024/03/29 00:42:55;;;;;;;;;;;20.30;47.80;;;;;;1579728;74;1911;-71
2024/03/29 00:44:57;;;;;;;;;;;20.30;47.80;;;;;;1576706;73;786;-73
2024/03/29 00:46:59;;;;;;;;;;;20.30;47.80;;;;;;1580279;73;1121;-68
2024/03/29 00:49:01;;;;;;;;;;;20.20;47.70;;;;;;1581895;74;808;-72
2024/03/29 00:51:03;;;;;;;;;;;20.20;47.70;;;;;;1568149;73;966;-70
2024/03/29 00:53:05;;;;;;;;;;;20.20;47.70;;;;;;1583752;73;712;-70
2024/03/29 00:55:07;;;;;;;;;;;20.20;47.70;;;;;;1584144;73;800;-70
2024/03/29 00:57:13;;;;;;;;;;;20.30;47.90;;;;;;1576016;73;1075;-68
2024/03/29 00:59:12;;;;;;;;;;;20.30;47.90;;;;;;1576139;73;1659;-69
2024/03/29 01:01:14;;;;;;;;;;;20.20;47.80;;;;;;1581792;73;623;-71
2024/03/29 01:03:16;;;;;;;;;;;20.20;47.80;;;;;;1582099;73;2016;-71
2024/03/29 01:05:18;;;;;;;;;;;20.20;47.70;;;;;;1580136;73;1112;-69
2024/03/29 01:07:20;;;;;;;;;;;20.20;47.70;;;;;;1583305;73;674;-72
2024/03/29 01:09:22;;;;;;;;;;;20.30;47.90;;;;;;1581377;73;777;-70
2024/03/29 01:11:24;;;;;;;;;;;20.20;47.80;;;;;;1574758;73;666;-71
2024/03/29 01:13:26;;;;;;;;;;;20.20;47.80;;;;;;1575721;73;837;-69
2024/03/29 01:15:28;;;;;;;;;;;20.20;47.80;;;;;;1582845;74;1151;-70
2024/03/29 01:17:30;;;;;;;;;;;20.30;47.90;;;;;;1585943;73;661;-69
2024/03/29 01:19:32;;;;;;;;;;;20.20;47.80;;;;;;1582023;73;654;-70
2024/03/29 01:21:34;;;;;;;;;;;20.20;47.90;;;;;;1581933;74;733;-72
2024/03/29 01:23:37;;;;;;;;;;;20.20;47.90;;;;;;1581155;73;1899;-72
2024/03/29 01:25:39;;;;;;;;;;;20.20;47.80;;;;;;1573625;73;1142;-70
2024/03/29 01:27:41;;;;;;;;;;;20.30;48.00;;;;;;1577729;74;838;-71
2024/03/29 01:29:43;;;;;;;;;;;20.20;47.90;;;;;;1584917;73;661;-69
2024/03/29 01:31:45;;;;;;;;;;;20.20;47.90;;;;;;1584484;74;702;-73
2024/03/29 01:33:47;;;;;;;;;;;20.30;48.00;;;;;;1578905;74;838;-70
2024/03/29 01:35:49;;;;;;;;;;;20.20;47.90;;;;;;1581746;73;1143;-72
2024/03/29 01:37:51;;;;;;;;;;;20.20;47.90;;;;;;1590597;73;787;-71
2024/03/29 01:39:52;;;;;;;;;;;20.20;47.90;;;;;;1577233;73;595;-71
2024/03/29 01:41:54;;;;;;;;;;;20.20;47.90;;;;;;1579193;73;666;-70
2024/03/29 01:43:57;;;;;;;;;;;20.30;48.10;;;;;;1569265;73;1943;-69
2024/03/29 01:45:59;;;;;;;;;;;20.30;48.10;;;;;;1572268;73;1185;-70
2024/03/29 01:48:01;;;;;;;;;;;20.30;48.10;;;;;;1589595;73;730;-70
2024/03/29 01:50:02;;;;;;;;;;;20.20;48.00;;;;;;1581257;74;796;-67
2024/03/29 01:52:04;;;;;;;;;;;20.30;48.20;;;;;;1581602;73;755;-71
2024/03/29 01:54:07;;;;;;;;;;;20.30;48.20;;;;;;1581094;73;769;-71
2024/03/29 01:56:09;;;;;;;;;;;20.40;48.20;;;;;;1586732;73;1129;-70
2024/03/29 01:58:10;;;;;;;;;;;20.30;48.20;;;;;;1581308;73;745;-68
2024/03/29 02:00:12;;;;;;;;;;;20.30;48.10;;;;;;1581043;73;767;-69
2024/03/29 02:02:14;;;;;;;;;;;20.30;48.20;;;;;;1574094;74;1919;-69
2024/03/29 02:04:16;;;;;;;;;;;20.20;48.10;;;;;;1575451;73;798;-72
2024/03/29 02:06:19;;;;;;;;;;;20.30;48.20;;;;;;1572380;74;1133;-72
2024/03/29 02:08:21;;;;;;;;;;;20.30;48.30;;;;;;1578194;73;711;-69
2024/03/29 02:10:23;;;;;;;;;;;20.30;48.30;;;;;;1578998;73;795;-71
2024/03/29 02:12:24;;;;;;;;;;;20.30;48.30;;;;;;1578127;73;614;-71
2024/03/29 02:14:26;;;;;;;;;;;20.20;48.20;;;;;;1574853;73;776;-70
2024/03/29 02:16:28;;;;;;;;;;;20.30;48.30;;;;;;1573467;74;1108;-70
2024/03/29 02:18:30;;;;;;;;;;;20.30;48.30;;;;;;1580715;73;721;-70
2024/03/29 02:20:32;;;;;;;;;;;20.20;48.10;;;;;;1581803;73;807;-69
2024/03/29 02:22:34;;;;;;;;;;;20.30;48.30;;;;;;1579099;74;1933;-66
2024/03/29 02:24:36;;;;;;;;;;;20.20;48.20;;;;;;1575086;74;723;-72
2024/03/29 02:26:41;;;;;;;;;;;20.20;48.20;;;;;;1587104;73;1145;-72
2024/03/29 02:28:41;;;;;;;;;;;20.30;48.40;;;;;;1576377;73;1498;-73
2024/03/29 02:30:43;;;;;;;;;;;20.30;48.40;;;;;;1580695;73;797;-70
2024/03/29 02:32:45;;;;;;;;;;;20.30;48.40;;;;;;1580501;73;773;-70
2024/03/29 02:34:47;;;;;;;;;;;20.20;48.30;;;;;;1582827;73;735;-72
2024/03/29 02:36:49;;;;;;;;;;;20.30;48.50;;;;;;1590157;73;1124;-71
2024/03/29 02:38:51;;;;;;;;;;;20.20;48.30;;;;;;1576137;73;763;-70
2024/03/29 02:40:53;;;;;;;;;;;20.30;48.40;;;;;;1585876;73;804;-73
2024/03/29 02:42:55;;;;;;;;;;;20.40;48.40;;;;;;1578567;74;1908;-72
2024/03/29 02:44:57;;;;;;;;;;;20.20;48.30;;;;;;1568817;74;699;-72
2024/03/29 02:46:59;;;;;;;;;;;20.30;48.50;;;;;;1577227;73;1160;-71
2024/03/29 02:49:01;;;;;;;;;;;20.20;48.40;;;;;;1582125;74;621;-69
2024/03/29 02:51:02;;;;;;;;;;;20.30;48.50;;;;;;1586197;73;790;-70
2024/03/29 02:53:04;;;;;;;;;;;20.30;48.50;;;;;;1593645;73;735;-69
2024/03/29 02:55:06;;;;;;;;;;;20.30;48.50;;;;;;1588772;73;731;-69
2024/03/29 02:57:08;;;;;;;;;;;20.30;48.50;;;;;;1580486;74;1104;-70
2024/03/29 02:59:10;;;;;;;;;;;20.20;48.40;;;;;;1567011;73;800;-71
2024/03/29 03:01:12;;;;;;;;;;;20.30;48.60;;;;;;1578693;74;723;-71
2024/03/29 03:03:17;;;;;;;;;;;20.30;48.60;;;;;;1573265;73;1924;-71
2024/03/29 03:05:19;;;;;;;;;;;20.30;48.60;;;;;;1580219;73;1163;-70
2024/03/29 03:12:02;;;;;;;;;;;20.30;48.60;;;;;;1505730;77;944;-69
2024/03/29 03:14:04;;;;;;;;;;;20.30;48.60;;;;;;1505588;76;936;-70
2024/03/29 03:16:06;;;;;;;;;;;20.30;48.70;;;;;;1507625;76;1170;-70
2024/03/29 03:18:08;;;;;;;;;;;20.30;48.60;;;;;;1567646;74;875;-68
2024/03/29 03:20:13;;;;;;;;;;;20.30;48.60;;;;;;1575229;74;747;-69
2024/03/29 03:22:14;;;;;;;;;;;20.30;48.60;;;;;;1576130;74;1694;-69
2024/03/29 03:24:16;;;;;;;;;;;20.30;48.60;;;;;;1536624;75;1938;-71
2024/03/29 03:26:17;;;;;;;;;;;20.30;48.70;;;;;;1593181;72;1145;-73
2024/03/29 03:28:19;;;;;;;;;;;20.30;48.70;;;;;;1584658;73;783;-72
2024/03/29 03:30:22;;;;;;;;;;;20.30;48.70;;;;;;1577728;74;730;-70
2024/03/29 03:32:24;;;;;;;;;;;20.30;48.60;;;;;;1568466;73;783;-69
2024/03/29 03:34:25;;;;;;;;;;;20.30;48.70;;;;;;1583956;73;655;-69
2024/03/29 03:36:27;;;;;;;;;;;20.30;48.70;;;;;;1577431;73;1092;-70
2024/03/29 03:38:29;;;;;;;;;;;20.30;48.70;;;;;;1591185;73;794;-72
2024/03/29 03:40:31;;;;;;;;;;;20.30;48.70;;;;;;1574984;73;763;-71
2024/03/29 03:42:33;;;;;;;;;;;20.30;48.70;;;;;;1596041;73;785;-71
2024/03/29 03:44:35;;;;;;;;;;;20.30;48.70;;;;;;1586746;73;1930;-71
2024/03/29 03:46:37;;;;;;;;;;;20.30;48.70;;;;;;1582366;73;1174;-73
2024/03/29 03:48:39;;;;;;;;;;;20.30;48.70;;;;;;1583375;73;804;-74
2024/03/29 03:50:41;;;;;;;;;;;20.30;48.70;;;;;;1594962;73;792;-70
2024/03/29 03:52:43;;;;;;;;;;;20.40;48.70;;;;;;1576985;74;805;-69
2024/03/29 03:54:45;;;;;;;;;;;20.30;48.80;;;;;;1589421;73;666;-71
2024/03/29 03:56:46;;;;;;;;;;;20.30;48.80;;;;;;1577455;74;1150;-70
2024/03/29 03:58:48;;;;;;;;;;;20.30;48.80;;;;;;1583349;73;778;-71
2024/03/29 04:00:50;;;;;;;;;;;20.30;48.80;;;;;;1589979;73;790;-68
2024/03/29 04:02:52;;;;;;;;;;;20.30;48.80;;;;;;1574889;75;762;-70
2024/03/29 04:04:54;;;;;;;;;;;20.30;48.80;;;;;;1583752;73;1909;-72
2024/03/29 04:06:56;;;;;;;;;;;20.40;48.80;;;;;;1575702;73;1144;-70
2024/03/29 04:08:58;;;;;;;;;;;20.30;48.80;;;;;;1590452;73;816;-70
2024/03/29 04:11:03;;;;;;;;;;;20.30;48.80;;;;;;1584031;73;665;-70
2024/03/29 04:13:05;;;;;;;;;;;20.40;48.80;;;;;;1576050;73;670;-69
2024/03/29 04:15:07;;;;;;;;;;;20.30;48.90;;;;;;1586749;74;791;-72
2024/03/29 04:17:09;;;;;;;;;;;20.30;48.80;;;;;;1575166;73;1129;-71
2024/03/29 04:19:11;;;;;;;;;;;20.30;48.80;;;;;;1585795;73;786;-69
2024/03/29 04:21:13;;;;;;;;;;;20.30;48.80;;;;;;1586742;73;844;-72
2024/03/29 04:23:15;;;;;;;;;;;20.30;48.80;;;;;;1568873;73;1903;-70
2024/03/29 04:25:17;;;;;;;;;;;20.40;48.80;;;;;;1587530;73;1192;-70
2024/03/29 04:27:19;;;;;;;;;;;20.30;48.80;;;;;;1585348;73;676;-70
2024/03/29 04:29:20;;;;;;;;;;;20.30;48.90;;;;;;1586649;73;637;-68
2024/03/29 04:31:22;;;;;;;;;;;20.30;48.80;;;;;;1584200;73;663;-70
2024/03/29 04:33:25;;;;;;;;;;;20.30;48.80;;;;;;1571911;73;793;-72
2024/03/29 04:35:26;;;;;;;;;;;20.30;48.80;;;;;;1580356;74;1117;-71
2024/03/29 04:37:28;;;;;;;;;;;20.30;48.90;;;;;;1581084;73;898;-74
2024/03/29 04:39:30;;;;;;;;;;;20.30;48.80;;;;;;1572560;73;696;-70
2024/03/29 04:41:34;;;;;;;;;;;20.30;48.80;;;;;;1572456;73;726;-70
2024/03/29 04:43:36;;;;;;;;;;;20.30;48.80;;;;;;1575987;74;1918;-71
2024/03/29 04:45:38;;;;;;;;;;;20.30;48.80;;;;;;1580973;74;1165;-70
2024/03/29 04:47:39;;;;;;;;;;;20.30;48.90;;;;;;1574542;73;627;-71
2024/03/29 04:49:42;;;;;;;;;;;20.30;48.80;;;;;;1578685;73;639;-70
2024/03/29 04:51:44;;;;;;;;;;;20.30;48.80;;;;;;1577549;73;753;-73
2024/03/29 04:53:45;;;;;;;;;;;20.30;48.80;;;;;;1584903;73;757;-71
2024/03/29 04:55:48;;;;;;;;;;;20.30;48.90;;;;;;1579330;73;1128;-72
2024/03/29 04:57:50;;;;;;;;;;;20.30;48.80;;;;;;1541656;75;997;-71
2024/03/29 04:59:53;;;;;;;;;;;20.30;48.80;;;;;;1576530;73;694;-70
2024/03/29 05:01:56;;;;;;;;;;;20.30;48.80;;;;;;1577544;73;802;-70
2024/03/29 05:03:58;;;;;;;;;;;20.30;48.80;;;;;;1574216;73;1918;-73
2024/03/29 05:06:00;;;;;;;;;;;20.30;48.80;;;;;;1572168;73;1180;-69
2024/03/29 05:08:02;;;;;;;;;;;20.30;48.80;;;;;;1574276;73;681;-70
2024/03/29 05:10:06;;;;;;;;;;;20.30;48.70;;;;;;1580598;73;690;-70
2024/03/29 05:12:07;;;;;;;;;;;20.30;48.80;;;;;;1580140;73;1639;-70
2024/03/29 05:14:10;;;;;;;;;;;20.30;48.80;;;;;;1568026;74;670;-70
2024/03/29 05:16:12;;;;;;;;;;;20.30;48.80;;;;;;1577103;73;1146;-71
2024/03/29 05:18:14;;;;;;;;;;;20.20;48.70;;;;;;1571751;74;708;-71
2024/03/29 05:20:16;;;;;;;;;;;20.40;48.80;;;;;;1581075;73;631;-71
2024/03/29 05:22:17;;;;;;;;;;;20.30;48.80;;;;;;1569608;73;738;-71
2024/03/29 05:24:19;;;;;;;;;;;20.30;48.90;;;;;;1581938;73;1940;-72
2024/03/29 05:26:21;;;;;;;;;;;20.30;48.80;;;;;;1570944;73;1210;-70
2024/03/29 05:28:23;;;;;;;;;;;20.30;48.90;;;;;;1581493;73;644;-70
2024/03/29 05:30:26;;;;;;;;;;;20.30;48.90;;;;;;1583295;73;736;-70
2024/03/29 05:32:28;;;;;;;;;;;20.30;48.90;;;;;;1575304;74;761;-72
2024/03/29 05:34:30;;;;;;;;;;;20.30;48.90;;;;;;1584644;73;690;-73
2024/03/29 05:36:33;;;;;;;;;;;20.30;48.80;;;;;;1584999;73;1093;-71
2024/03/29 05:38:35;;;;;;;;;;;20.20;48.70;;;;;;1564949;73;787;-72
2024/03/29 05:40:37;;;;;;;;;;;20.20;48.70;;;;;;1584370;73;743;-71
2024/03/29 05:42:39;;;;;;;;;;;20.30;48.90;;;;;;1573940;73;737;-70
2024/03/29 05:44:41;;;;;;;;;;;20.30;48.80;;;;;;1581032;73;1910;-72
2024/03/29 05:46:43;;;;;;;;;;;20.30;48.80;;;;;;1571798;73;1178;-73
2024/03/29 05:48:45;;;;;;;;;;;20.30;48.70;;;;;;1580768;73;703;-72
2024/03/29 05:50:47;;;;;;;;;;;20.20;48.60;;;;;;1575495;74;742;-70
2024/03/29 05:52:49;;;;;;;;;;;20.30;48.70;;;;;;1574186;73;644;-71
2024/03/29 05:54:51;;;;;;;;;;;20.30;48.70;;;;;;1577319;74;748;-71
2024/03/29 05:56:52;;;;;;;;;;;20.20;48.60;;;;;;1560106;73;1140;-69
2024/03/29 05:58:54;;;;;;;;;;;20.30;48.70;;;;;;1584435;73;749;-70
2024/03/29 06:00:56;;;;;;;;;;;20.20;48.60;;;;;;1585207;73;782;-69
2024/03/29 06:02:58;;;;;;;;;;;20.30;48.70;;;;;;1583860;73;718;-72
2024/03/29 06:05:00;;;;;;;;;;;20.20;48.60;;;;;;1582047;74;1921;-72
2024/03/29 06:07:02;;;;;;;;;;;20.30;48.70;;;;;;1587139;73;1149;-71
2024/03/29 06:09:04;;;;;;;;;;;20.30;48.70;;;;;;1599577;73;677;-70
2024/03/29 06:11:06;;;;;;;;;;;20.30;48.70;;;;;;1586938;73;599;-71
2024/03/29 06:13:17;;;;;;;;;;;20.30;48.80;;;;;;1582767;73;802;-70
2024/03/29 06:17:31;;;;;;;;;;;20.30;48.80;;;;;;1578269;73;649;-72
2024/03/29 06:19:33;;;;;;;;;;;20.30;48.90;;;;;;1588406;73;644;-72
2024/03/29 06:21:42;;;;;;;;;;;20.20;48.70;;;;;;1585120;73;808;-72
2024/03/29 06:23:44;;;;;;;;;;;20.20;48.70;;;;;;1581416;74;705;-69
2024/03/29 06:25:46;;;;;;;;;;;20.30;48.80;;;;;;1574393;74;1938;-69
2024/03/29 06:27:48;;;;;;;;;;;20.20;48.80;;;;;;1580269;73;681;-70
2024/03/29 06:29:50;;;;;;;;;;;20.20;48.80;;;;;;1578979;74;595;-71
2024/03/29 06:31:52;;;;;;;;;;;20.20;48.90;;;;;;1577859;74;631;-70
2024/03/29 06:33:54;;;;;;;;;;;20.30;49.10;;;;;;1581183;74;632;-72
2024/03/29 06:35:56;;;;;;;;;;;20.70;49.30;;;;;;1582227;73;1125;-71
2024/03/29 06:37:58;;;;;;;;;;;20.20;49.00;;;;;;1579750;73;669;-72
2024/03/29 06:40:00;;;;;;;;;;;20.20;49.00;;;;;;1579248;73;687;-71
2024/03/29 06:42:02;;;;;;;;;;;20.20;49.00;;;;;;1577773;74;800;-70
2024/03/29 06:44:03;;;;;;;;;;;20.30;49.20;;;;;;1580060;73;1933;-71
2024/03/29 06:46:05;;;;;;;;;;;20.20;49.00;;;;;;1583700;73;1119;-72
2024/03/29 06:48:07;;;;;;;;;;;20.20;49.00;;;;;;1588235;73;747;-73
2024/03/29 06:50:09;;;;;;;;;;;20.20;49.10;;;;;;1583440;74;697;-72
2024/03/29 06:52:11;;;;;;;;;;;20.20;49.10;;;;;;1581966;73;719;-70
2024/03/29 06:54:13;;;;;;;;;;;20.30;49.20;;;;;;1591396;73;637;-70
2024/03/29 06:56:15;;;;;;;;;;;20.30;49.20;;;;;;1578890;73;1214;-72
2024/03/29 06:58:17;;;;;;;;;;;20.20;49.20;;;;;;1580068;73;724;-71
2024/03/29 07:00:19;;;;;;;;;;;20.30;49.40;;;;;;1581390;73;788;-71
2024/03/29 07:02:21;;;;;;;;;;;20.30;49.30;;;;;;1583424;73;738;-71
2024/03/29 07:04:23;;;;;;;;;;;20.30;49.30;;;;;;1580848;73;1993;-71
2024/03/29 07:06:25;;;;;;;;;;;20.30;49.30;;;;;;1577027;74;1164;-72
2024/03/29 07:08:27;;;;;;;;;;;20.40;49.30;;;;;;1582428;73;687;-74
2024/03/29 07:10:30;;;;;;;;;;;20.40;49.40;;;;;;1577664;73;852;-74
2024/03/29 07:12:32;;;;;;;;;;;20.30;49.40;;;;;;1584441;73;706;-72
2024/03/29 07:14:35;;;;;;;;;;;20.70;49.60;;;;;;1583348;73;641;-69
2024/03/29 07:16:37;;;;;;;;;;;20.30;49.40;;;;;;1582251;74;1112;-73
2024/03/29 07:18:39;;;;;;;;;;;20.30;49.40;;;;;;1580530;73;770;-70
2024/03/29 07:20:41;;;;;;;;;;;20.30;49.60;;;;;;1581993;74;759;-72
2024/03/29 07:22:45;;;;;;;;;;;20.40;49.60;;;;;;1585379;73;738;-67
2024/03/29 07:24:47;;;;;;;;;;;20.30;49.50;;;;;;1567946;74;1899;-69
2024/03/29 07:26:49;;;;;;;;;;;20.30;49.60;;;;;;1583665;73;1099;-69
2024/03/29 07:28:50;;;;;;;;;;;20.40;49.60;;;;;;1581803;74;777;-69
2024/03/29 07:30:57;;;;;;;;;;;20.40;49.20;;;;;;1579325;74;707;-67
2024/03/29 07:32:56;;;;;;;;;;;20.40;48.90;;;;;;1584776;73;1241;-68
2024/03/29 07:34:59;;;;;;;;;;;20.40;48.40;;;;;;1577524;73;728;-69
2024/03/29 07:37:01;;;;;;;;;;;20.40;47.80;;;;;;1578979;73;1093;-69
2024/03/29 07:39:04;;;;;;;;;;;20.30;47.50;;;;;;1583662;73;759;-71
2024/03/29 07:41:10;;;;;;;;;;;20.30;47.10;;;;;;1575099;74;656;-69
2024/03/29 07:43:13;;;;;;;;;;;20.30;47.10;;;;;;1575499;74;692;-71
2024/03/29 07:45:15;;;;;;;;;;;20.30;46.80;;;;;;1572699;73;1928;-69
2024/03/29 07:47:17;;;;;;;;;;;20.30;46.50;;;;;;1584434;73;1087;-68
2024/03/29 07:49:21;;;;;;;;;;;20.20;46.10;;;;;;1593864;73;769;-67
2024/03/29 07:51:23;;;;;;;;;;;20.20;46.00;;;;;;1594213;73;719;-67
2024/03/29 07:53:25;;;;;;;;;;;20.20;46.00;;;;;;1582506;73;823;-69
2024/03/29 07:55:27;;;;;;;;;;;20.20;45.90;;;;;;1572502;73;1177;-69
2024/03/29 07:57:28;;;;;;;;;;;20.20;46.00;;;;;;1558650;73;703;-68
2024/03/29 07:59:30;;;;;;;;;;;20.20;45.90;;;;;;1583365;73;730;-71
2024/03/29 08:01:32;;;;;;;;;;;20.20;45.80;;;;;;1578208;74;736;-68
2024/03/29 08:03:34;;;;;;;;;;;20.20;45.60;;;;;;1578700;73;644;-69
2024/03/29 08:05:36;;;;;;;;;;;20.20;45.20;;;;;;1574381;74;1911;-68
2024/03/29 08:07:38;;;;;;;;;;;20.20;45.00;;;;;;1571639;74;790;-68
2024/03/29 08:09:40;;;;;;;;;;;20.20;45.00;;;;;;1582853;73;764;-68
2024/03/29 08:11:42;;;;;;;;;;;20.20;44.80;;;;;;1568825;74;709;-69
2024/03/29 08:13:44;;;;;;;;;;;20.20;42.70;;;;;;1581859;73;671;-68
2024/03/29 08:15:46;;;;;;;;;;;20.20;43.90;;;;;;1573649;74;1211;-70
2024/03/29 08:17:48;;;;;;;;;;;20.20;43.90;;;;;;1579742;73;707;-68
2024/03/29 08:19:50;;;;;;;;;;;20.10;43.60;;;;;;1589325;73;1102;-69
2024/03/29 08:21:52;;;;;;;;;;;20.00;43.20;;;;;;1570126;73;701;-72
2024/03/29 08:23:55;;;;;;;;;;;20.10;42.60;;;;;;1572340;74;592;-71
2024/03/29 08:25:56;;;;;;;;;;;20.60;43.60;;;;;;1588844;72;1895;-70
2024/03/29 08:27:58;;;;;;;;;;;20.10;43.40;;;;;;1565597;74;735;-69
2024/03/29 08:30:00;;;;;;;;;;;20.10;43.60;;;;;;1594750;73;736;-70
2024/03/29 08:32:03;;;;;;;;;;;20.10;43.80;;;;;;1585960;73;751;-72
2024/03/29 08:34:07;;;;;;;;;;;20.10;43.90;;;;;;1584289;73;720;-67
2024/03/29 08:36:09;;;;;;;;;;;20.10;43.90;;;;;;1582658;73;1136;-74
2024/03/29 08:38:13;;;;;;;;;;;20.10;43.50;;;;;;1585087;73;776;-74
2024/03/29 08:40:14;;;;;;;;;;;20.10;43.40;;;;;;1579427;73;2060;-68
2024/03/29 08:42:17;;;;;;;;;;;20.10;43.40;;;;;;1579368;73;887;-72
2024/03/29 08:44:19;;;;;;;;;;;20.10;43.60;;;;;;1578334;74;700;-70
2024/03/29 08:46:20;;;;;;;;;;;20.20;43.70;;;;;;1582354;73;1923;-71
2024/03/29 08:48:24;;;;;;;;;;;20.20;43.80;;;;;;1572330;73;991;-72
2024/03/29 08:50:26;;;;;;;;;;;20.10;43.90;;;;;;1575365;73;750;-70
2024/03/29 08:52:28;;;;;;;;;;;20.20;44.00;;;;;;1581140;74;661;-69
2024/03/29 08:54:30;;;;;;;;;;;20.20;44.10;;;;;;1583859;73;933;-67
2024/03/29 08:56:34;;;;;;;;;;;20.20;44.20;;;;;;1581359;73;1160;-70
2024/03/29 08:58:36;;;;;;;;;;;20.20;44.30;;;;;;1575254;74;2879;-70
2024/03/29 09:00:38;;;;;;;;;;;20.10;44.40;;;;;;1580643;73;676;-70
2024/03/29 09:02:40;;;;;;;;;;;20.20;44.50;;;;;;1571700;74;670;-70
2024/03/29 09:04:41;;;;;;;;;;;20.20;44.60;;;;;;1569753;73;861;-71
2024/03/29 09:06:43;;;;;;;;;;;20.20;44.60;;;;;;1584341;73;1939;-72
2024/03/29 09:08:45;;;;;;;;;;;20.20;44.70;;;;;;1573246;74;738;-69
2024/03/29 09:10:47;;;;;;;;;;;20.20;44.80;;;;;;1573052;73;702;-71
2024/03/29 09:12:49;;;;;;;;;;;20.20;44.90;;;;;;1535573;76;799;-73
2024/03/29 09:14:52;;;;;;;;;;;20.20;44.90;;;;;;1512988;77;762;-73
2024/03/29 09:16:53;;;;;;;;;;;20.20;45.00;;;;;;1514114;77;1154;-69
2024/03/29 09:18:55;;;;;;;;;;;20.90;45.50;;;;;;1517905;77;725;-72
2024/03/29 09:21:00;;;;;;;;;;;20.20;45.10;;;;;;1518580;77;689;-70
2024/03/29 09:23:02;;;;;;;;;;;20.30;45.30;;;;;;1505859;76;847;-70
2024/03/29 09:25:04;;;;;;;;;;;20.30;45.30;;;;;;1514663;77;1932;-69
2024/03/29 09:27:07;;;;;;;;;;;20.30;45.40;;;;;;1518782;76;1114;-71
2024/03/29 09:29:09;;;;;;;;;;;20.70;45.70;;;;;;1512048;76;717;-70
2024/03/29 09:31:11;;;;;;;;;;;20.20;45.30;;;;;;1517066;76;606;-70
2024/03/29 09:33:13;;;;;;;;;;;20.30;45.50;;;;;;1512091;76;744;-70
2024/03/29 09:35:15;;;;;;;;;;;20.20;45.40;;;;;;1528465;76;675;-72
2024/03/29 09:37:17;;;;;;;;;;;20.20;45.50;;;;;;1513119;77;677;-72
2024/03/29 09:39:19;;;;;;;;;;;20.30;45.60;;;;;;1520522;76;753;-69
2024/03/29 09:41:21;;;;;;;;;;;20.20;45.60;;;;;;1526367;76;696;-70
2024/03/29 09:43:23;;;;;;;;;;;20.30;45.70;;;;;;1521290;76;881;-70
2024/03/29 09:45:25;;;;;;;;;;;20.20;45.60;;;;;;1526892;76;1926;-72
2024/03/29 09:47:27;;;;;;;;;;;20.20;45.60;;;;;;1531318;76;685;-72
2024/03/29 09:49:29;;;;;;;;;;;20.20;45.70;;;;;;1516025;76;776;-69
2024/03/29 09:51:31;;;;;;;;;;;20.20;45.70;;;;;;1527371;76;704;-72
2024/03/29 09:53:34;;;;;;;;;;;20.20;45.70;;;;;;1515479;76;731;-70
2024/03/29 09:55:36;;;;;;;;;;;20.20;45.70;;;;;;1511144;76;1195;-71
2024/03/29 09:57:38;;;;;;;;;;;20.20;45.80;;;;;;1519683;76;641;-72
2024/03/29 09:59:40;;;;;;;;;;;20.20;45.80;;;;;;1504924;76;769;-69
2024/03/29 10:01:42;;;;;;;;;;;20.40;46.00;;;;;;1510200;77;695;-71
2024/03/29 10:03:45;;;;;;;;;;;20.30;46.00;;;;;;1519737;76;736;-69
2024/03/29 10:05:47;;;;;;;;;;;20.20;45.90;;;;;;1523726;76;1922;-72
2024/03/29 10:07:49;;;;;;;;;;;20.20;45.90;;;;;;1524268;76;814;-75
2024/03/29 10:09:52;;;;;;;;;;;20.20;45.90;;;;;;1521317;76;668;-69
2024/03/29 10:11:54;;;;;;;;;;;20.30;46.00;;;;;;1517945;77;722;-70
2024/03/29 10:13:56;;;;;;;;;;;20.30;46.10;;;;;;1517824;76;676;-70
2024/03/29 10:15:58;;;;;;;;;;;20.30;46.10;;;;;;1513239;77;1155;-70
2024/03/29 10:18:00;;;;;;;;;;;20.30;46.20;;;;;;1512341;76;709;-72
2024/03/29 10:20:07;;;;;;;;;;;20.20;46.00;;;;;;1523660;76;575;-71
2024/03/29 10:22:08;;;;;;;;;;;20.30;46.10;;;;;;1518816;76;1191;-72
2024/03/29 10:24:14;;;;;;;;;;;20.30;46.10;;;;;;1515949;76;744;-73
2024/03/29 10:26:16;;;;;;;;;;;20.30;46.20;;;;;;1534109;75;1900;-70
2024/03/29 10:28:19;;;;;;;;;;;20.30;46.20;;;;;;1530103;76;669;-70
2024/03/29 10:30:21;;;;;;;;;;;20.30;46.30;;;;;;1523599;77;797;-71
2024/03/29 10:32:23;;;;;;;;;;;20.30;46.20;;;;;;1516812;76;772;-72
2024/03/29 10:34:33;;;;;;;;;;;20.30;46.30;;;;;;1521526;76;712;-69
2024/03/29 10:36:36;;;;;;;;;;;20.30;46.30;;;;;;1505452;76;1636;-70
2024/03/29 10:38:36;;;;;;;;;;;20.30;46.30;;;;;;1517048;76;1398;-72
2024/03/29 10:40:42;;;;;;;;;;;20.30;46.30;;;;;;1523955;77;735;-69
2024/03/29 10:42:44;;;;;;;;;;;20.30;46.30;;;;;;1519383;78;708;-69
2024/03/29 10:44:46;;;;;;;;;;;20.30;46.30;;;;;;1519107;77;699;-69
2024/03/29 10:46:48;;;;;;;;;;;20.30;46.30;;;;;;1519682;76;1965;-72
2024/03/29 10:48:50;;;;;;;;;;;20.30;46.30;;;;;;1511421;76;728;-70
2024/03/29 10:50:52;;;;;;;;;;;20.40;46.30;;;;;;1521367;76;627;-76
2024/03/29 10:52:54;;;;;;;;;;;20.80;46.60;;;;;;1510962;76;1044;-71
2024/03/29 10:54:55;;;;;;;;;;;20.30;46.40;;;;;;1517810;77;720;-73
2024/03/29 10:56:59;;;;;;;;;;;20.30;46.40;;;;;;1516960;76;1171;-70
2024/03/29 10:59:02;;;;;;;;;;;20.30;46.40;;;;;;1525010;76;730;-73
2024/03/29 11:01:04;;;;;;;;;;;20.30;46.30;;;;;;1513906;76;872;-68
2024/03/29 11:03:08;;;;;;;;;;;20.30;46.40;;;;;;1532210;76;677;-69
2024/03/29 11:05:10;;;;;;;;;;;20.30;46.40;;;;;;1528562;76;762;-74
2024/03/29 11:07:13;;;;;;;;;;;20.30;46.40;;;;;;1522034;76;1944;-71
2024/03/29 11:09:15;;;;;;;;;;;20.30;46.50;;;;;;1517293;77;1942;-72
2024/03/29 11:11:17;;;;;;;;;;;20.30;46.40;;;;;;1515422;76;745;-73
2024/03/29 11:13:36;;;;;;;;;;;20.30;46.50;;;;;;1505520;76;760;-75
2024/03/29 11:15:38;;;;;;;;;;;20.30;46.50;;;;;;1520023;76;1784;-71
2024/03/29 11:17:40;;;;;;;;;;;20.30;46.50;;;;;;1514257;76;764;-69
2024/03/29 11:19:42;;;;;;;;;;;20.30;46.50;;;;;;1514888;77;644;-72
2024/03/29 11:21:48;;;;;;;;;;;20.30;46.50;;;;;;1525767;76;838;-69
2024/03/29 11:23:50;;;;;;;;;;;20.30;46.50;;;;;;1513056;76;1699;-70
2024/03/29 11:25:57;;;;;;;;;;;20.30;46.50;;;;;;1527268;77;1944;-69
2024/03/29 11:27:57;;;;;;;;;;;20.30;46.50;;;;;;1520584;76;1546;-75
2024/03/29 11:29:59;;;;;;;;;;;20.40;46.50;;;;;;1525544;76;1866;-72
2024/03/29 11:32:01;;;;;;;;;;;20.30;46.50;;;;;;1518302;77;1137;-75
2024/03/29 11:34:03;;;;;;;;;;;20.30;46.50;;;;;;1514528;76;762;-71
2024/03/29 11:36:11;;;;;;;;;;;20.30;46.50;;;;;;1518003;77;1156;-69
2024/03/29 11:38:15;;;;;;;;;;;20.30;46.50;;;;;;1519430;76;751;-70
2024/03/29 11:40:16;;;;;;;;;;;20.30;46.50;;;;;;1516751;76;1756;-71
2024/03/29 11:42:18;;;;;;;;;;;20.30;46.50;;;;;;1524025;77;630;-70
2024/03/29 11:44:21;;;;;;;;;;;20.30;46.60;;;;;;1522422;77;778;-70
2024/03/29 11:46:23;;;;;;;;;;;20.30;46.60;;;;;;1519314;76;1938;-71
2024/03/29 11:48:26;;;;;;;;;;;20.40;46.60;;;;;;1516043;77;737;-70
2024/03/29 11:50:28;;;;;;;;;;;20.30;46.60;;;;;;1518943;77;748;-73
2024/03/29 11:52:30;;;;;;;;;;;20.40;46.50;;;;;;1522500;76;728;-70
2024/03/29 11:54:39;;;;;;;;;;;20.40;46.60;;;;;;1507026;76;736;-71
2024/03/29 11:56:42;;;;;;;;;;;20.30;46.60;;;;;;1513957;77;1152;-73
2024/03/29 11:58:44;;;;;;;;;;;20.30;46.60;;;;;;1517177;76;833;-70
2024/03/29 12:00:47;;;;;;;;;;;20.30;46.60;;;;;;1512929;76;834;-70
2024/03/29 12:02:49;;;;;;;;;;;20.40;46.60;;;;;;1518655;78;736;-72
2024/03/29 12:04:51;;;;;;;;;;;20.30;46.70;;;;;;1521443;76;752;-71
2024/03/29 12:06:53;;;;;;;;;;;20.30;46.70;;;;;;1527553;76;1938;-72
2024/03/29 12:08:57;;;;;;;;;;;20.30;46.60;;;;;;1527241;76;841;-69
2024/03/29 12:10:59;;;;;;;;;;;20.30;46.70;;;;;;1515918;76;694;-70
2024/03/29 12:13:01;;;;;;;;;;;20.40;46.70;;;;;;1530080;76;762;-70
2024/03/29 12:15:05;;;;;;;;;;;20.30;46.60;;;;;;1522185;76;800;-69